createdAt,value
2018-04-12T00:02:02.504Z,100439.48
2018-04-12T00:04:29.652Z,100439.86
2018-04-12T00:06:56.077Z,100440.80
2018-04-12T00:09:22.081Z,100436.66
2018-04-12T00:11:48.586Z,100432.22
2018-04-12T00:14:14.466Z,100433.10
2018-04-12T00:16:40.294Z,100436.70
2018-04-12T00:19:07.556Z,100440.36
2018-04-12T00:21:34.275Z,100429.11
2018-04-12T00:24:00.102Z,100431.77
2018-04-12T00:26:25.917Z,100422.20
2018-04-12T00:28:51.718Z,100418.72
2018-04-12T00:31:18.609Z,100412.12
2018-04-12T00:33:44.418Z,100412.92
2018-04-12T00:36:10.241Z,100405.27
2018-04-12T00:38:36.856Z,100403.29
2018-04-12T00:41:02.690Z,100404.88
2018-04-12T00:43:29.036Z,100400.75
2018-04-12T00:45:55.109Z,100394.83
2018-04-12T00:48:20.909Z,100398.00
2018-04-12T00:50:46.713Z,100404.30
2018-04-12T00:53:12.610Z,100405.48
2018-04-12T00:55:38.420Z,100418.21
2018-04-12T00:58:05.245Z,100425.14
2018-04-12T01:00:31.098Z,100433.10
2018-04-12T01:02:57.509Z,100435.23
2018-04-12T01:05:24.154Z,100438.30
2018-04-12T01:07:50.347Z,100437.65
2018-04-12T01:10:17.241Z,100432.56
2018-04-12T01:12:43.025Z,100431.05
2018-04-12T01:15:08.865Z,100436.59
2018-04-12T01:17:34.725Z,100425.70
2018-04-12T01:20:00.579Z,100421.62
2018-04-12T01:22:26.417Z,100420.86
2018-04-12T01:24:52.237Z,100430.00
2018-04-12T01:27:18.160Z,100414.80
2018-04-12T01:29:43.960Z,100412.45
2018-04-12T01:32:09.797Z,100419.31
2018-04-12T01:34:36.586Z,100410.74
2018-04-12T01:37:02.442Z,100406.20
2018-04-12T01:39:28.283Z,100401.42
2018-04-12T01:41:54.102Z,100403.94
2018-04-12T01:44:19.942Z,100400.72
2018-04-12T01:46:46.993Z,100402.25
2018-04-12T01:49:13.389Z,100402.80
2018-04-12T01:51:40.137Z,100399.55
2018-04-12T01:54:06.016Z,100395.17
2018-04-12T01:56:31.847Z,100391.08
2018-04-12T01:58:58.010Z,100388.11
2018-04-12T02:01:23.820Z,100390.27
2018-04-12T02:03:49.681Z,100391.88
2018-04-12T02:06:15.488Z,100384.73
2018-04-12T02:08:41.294Z,100381.56
2018-04-12T02:11:07.253Z,100370.45
2018-04-12T02:13:40.187Z,100372.59
2018-04-12T02:16:06.031Z,100368.72
2018-04-12T02:18:31.880Z,100365.03
2018-04-12T02:20:57.694Z,100363.00
2018-04-12T02:23:24.168Z,100360.84
2018-04-12T02:25:50.122Z,100359.63
2018-04-12T02:28:15.933Z,100361.32
2018-04-12T02:30:41.725Z,100358.24
2018-04-12T02:33:07.566Z,100364.36
2018-04-12T02:35:33.391Z,100353.84
2018-04-12T02:37:59.197Z,100350.54
2018-04-12T02:40:25.022Z,100349.95
2018-04-12T02:42:50.813Z,100348.43
2018-04-12T02:45:16.589Z,100345.36
2018-04-12T02:47:42.509Z,100345.63
2018-04-12T02:50:08.329Z,100338.41
2018-04-12T02:52:34.118Z,100337.89
2018-04-12T02:54:59.934Z,100339.00
2018-04-12T02:57:25.725Z,100333.33
2018-04-12T02:59:51.536Z,100320.92
2018-04-12T03:02:17.365Z,100332.98
2018-04-12T03:04:43.161Z,100331.80
2018-04-12T03:07:08.950Z,100331.55
2018-04-12T03:09:34.781Z,100321.86
2018-04-12T03:12:00.594Z,100329.89
2018-04-12T03:14:26.379Z,100321.95
2018-04-12T03:16:52.818Z,100324.60
2018-04-12T03:19:18.628Z,100322.84
2018-04-12T03:21:44.418Z,100314.70
2018-04-12T03:24:10.322Z,100314.52
2018-04-12T03:26:36.117Z,100304.41
2018-04-12T03:29:01.943Z,100313.03
2018-04-12T03:31:28.045Z,100311.12
2018-04-12T03:33:53.860Z,100305.33
2018-04-12T03:36:19.654Z,100301.06
2018-04-12T03:38:45.457Z,100302.36
2018-04-12T03:41:11.244Z,100295.22
2018-04-12T03:43:37.060Z,100290.70
2018-04-12T03:46:02.857Z,100278.52
2018-04-12T03:48:28.692Z,100285.17
2018-04-12T03:50:54.564Z,100289.92
2018-04-12T03:53:20.356Z,100280.66
2018-04-12T03:55:46.142Z,100285.44
2018-04-12T03:58:11.953Z,100282.14
2018-04-12T04:00:37.762Z,100276.30
2018-04-12T04:03:03.555Z,100272.45
2018-04-12T04:05:29.347Z,100272.17
2018-04-12T04:07:55.133Z,100264.44
2018-04-12T04:10:20.931Z,100260.72
2018-04-12T04:12:46.760Z,100263.48
2018-04-12T04:15:25.015Z,100254.21
2018-04-12T04:18:03.161Z,100255.22
2018-04-12T04:20:41.178Z,100251.44
2018-04-12T04:23:06.970Z,100247.75
2018-04-12T04:25:32.788Z,100244.94
2018-04-12T04:27:58.577Z,100239.67
2018-04-12T04:30:25.177Z,100242.11
2018-04-12T04:32:50.987Z,100247.61
2018-04-12T04:35:16.783Z,100241.72
2018-04-12T04:37:42.573Z,100240.92
2018-04-12T04:40:08.383Z,100245.32
2018-04-12T04:42:34.209Z,100248.09
2018-04-12T04:45:00.055Z,100251.30
2018-04-12T04:47:25.864Z,100251.20
2018-04-12T04:49:51.656Z,100249.82
2018-04-12T04:52:17.539Z,100253.50
2018-04-12T04:54:43.328Z,100256.52
2018-04-12T04:57:09.162Z,100251.69
2018-04-12T04:59:34.982Z,100247.95
2018-04-12T05:02:00.781Z,100249.88
2018-04-12T05:04:26.578Z,100244.60
2018-04-12T05:06:52.397Z,100241.98
2018-04-12T05:09:18.199Z,100241.48
2018-04-12T05:11:43.993Z,100236.14
2018-04-12T05:14:09.821Z,100237.72
2018-04-12T05:16:35.632Z,100231.31
2018-04-12T05:19:01.429Z,100224.13
2018-04-12T05:21:27.259Z,100231.16
2018-04-12T05:23:53.061Z,100232.67
2018-04-12T05:26:18.891Z,100221.86
2018-04-12T05:28:44.786Z,100229.61
2018-04-12T05:31:10.566Z,100229.48
2018-04-12T05:33:36.354Z,100223.48
2018-04-12T05:36:02.162Z,100225.12
2018-04-12T05:38:28.006Z,100214.03
2018-04-12T05:40:53.869Z,100214.84
2018-04-12T05:43:19.890Z,100219.68
2018-04-12T05:45:45.695Z,100210.89
2018-04-12T05:48:11.491Z,100215.17
2018-04-12T05:50:37.301Z,100214.42
2018-04-12T05:53:03.114Z,100210.08
2018-04-12T05:55:28.928Z,100207.19
2018-04-12T05:57:54.739Z,100206.34
2018-04-12T06:00:20.535Z,100209.29
2018-04-12T06:02:46.321Z,100214.95
2018-04-12T06:05:12.212Z,100208.37
2018-04-12T06:07:38.015Z,100210.53
2018-04-12T06:10:03.822Z,100211.62
2018-04-12T06:12:29.652Z,100219.14
2018-04-12T06:14:55.438Z,100213.78
2018-04-12T06:17:21.231Z,100209.11
2018-04-12T06:19:47.064Z,100208.69
2018-04-12T06:22:13.179Z,100213.02
2018-04-12T06:24:38.989Z,100221.91
2018-04-12T06:27:04.789Z,100227.38
2018-04-12T06:29:30.595Z,100219.83
2018-04-12T06:31:56.407Z,100224.82
2018-04-12T06:34:22.201Z,100217.56
2018-04-12T06:36:47.993Z,100213.91
2018-04-12T06:39:13.910Z,100212.45
2018-04-12T06:41:39.751Z,100211.50
2018-04-12T06:44:05.614Z,100204.02
2018-04-12T06:46:31.455Z,100205.91
2018-04-12T06:48:57.370Z,100207.11
2018-04-12T06:51:23.158Z,100206.55
2018-04-12T06:53:48.985Z,100214.47
2018-04-12T06:56:14.846Z,100208.91
2018-04-12T06:58:40.640Z,100207.16
2018-04-12T07:01:06.439Z,100213.06
2018-04-12T07:03:32.270Z,100211.06
2018-04-12T07:05:58.071Z,100205.09
2018-04-12T07:08:24.102Z,100208.30
2018-04-12T07:10:49.966Z,100211.63
2018-04-12T07:13:15.752Z,100208.92
2018-04-12T07:15:41.542Z,100198.77
2018-04-12T07:18:07.474Z,100203.53
2018-04-12T07:20:33.270Z,100196.57
2018-04-12T07:22:59.877Z,100201.05
2018-04-12T07:25:26.560Z,100193.39
2018-04-12T07:27:52.446Z,100192.49
2018-04-12T07:30:18.275Z,100200.15
2018-04-12T07:32:44.695Z,100184.75
2018-04-12T07:35:10.618Z,100178.03
2018-04-12T07:37:37.354Z,100175.80
2018-04-12T07:40:03.191Z,100181.20
2018-04-12T07:42:29.011Z,100189.11
2018-04-12T07:44:55.665Z,100177.66
2018-04-12T07:47:21.509Z,100177.73
2018-04-12T07:49:47.771Z,100173.51
2018-04-12T07:52:13.684Z,100177.45
2018-04-12T07:54:39.546Z,100177.89
2018-04-12T07:57:06.050Z,100169.91
2018-04-12T07:59:31.911Z,100170.84
2018-04-12T08:01:58.013Z,100167.25
2018-04-12T08:04:23.886Z,100165.51
2018-04-12T08:06:49.762Z,100160.09
2018-04-12T08:09:16.348Z,100155.78
2018-04-12T08:11:42.204Z,100160.75
2018-04-12T08:14:08.006Z,100158.27
2018-04-12T08:16:33.821Z,100159.61
2018-04-12T08:18:59.610Z,100160.80
2018-04-12T08:21:26.373Z,100160.30
2018-04-12T08:23:52.233Z,100151.53
2018-04-12T08:26:18.532Z,100148.08
2018-04-12T08:28:45.294Z,100150.55
2018-04-12T08:31:11.270Z,100148.13
2018-04-12T08:33:37.537Z,100146.91
2018-04-12T08:36:03.580Z,100151.00
2018-04-12T08:38:29.437Z,100147.36
2018-04-12T08:40:56.105Z,100139.58
2018-04-12T08:43:21.962Z,100139.38
2018-04-12T08:45:47.757Z,100130.87
2018-04-12T08:48:13.570Z,100115.50
2018-04-12T08:50:39.378Z,100109.50
2018-04-12T08:53:05.182Z,100118.48
2018-04-12T08:55:30.971Z,100117.79
2018-04-12T08:57:56.791Z,100113.50
2018-04-12T09:00:22.585Z,100111.37
2018-04-12T09:02:48.369Z,100113.62
2018-04-12T09:05:14.178Z,100116.06
2018-04-12T09:07:39.978Z,100115.07
2018-04-12T09:10:05.796Z,100109.47
2018-04-12T09:12:31.608Z,100116.88
2018-04-12T09:14:57.398Z,100110.14
2018-04-12T09:17:23.214Z,100113.38
2018-04-12T09:19:49.230Z,100109.09
2018-04-12T09:22:15.058Z,100105.64
2018-04-12T09:24:40.850Z,100104.20
2018-04-12T09:27:06.965Z,100104.45
2018-04-12T09:29:32.797Z,100097.16
2018-04-12T09:31:58.620Z,100095.45
2018-04-12T09:34:24.402Z,100091.58
2018-04-12T09:36:50.314Z,100093.80
2018-04-12T09:39:16.113Z,100095.50
2018-04-12T09:41:41.927Z,100099.57
2018-04-12T09:44:07.748Z,100092.05
2018-04-12T09:46:33.547Z,100083.69
2018-04-12T09:48:59.350Z,100081.81
2018-04-12T09:51:25.122Z,100083.84
2018-04-12T09:53:50.923Z,100081.39
2018-04-12T09:56:16.896Z,100070.02
2018-04-12T09:58:42.715Z,100067.00
2018-04-12T10:01:11.431Z,100059.08
2018-04-12T10:03:37.269Z,100065.49
2018-04-12T10:06:04.970Z,100047.25
2018-04-12T10:08:30.810Z,100038.75
2018-04-12T10:10:56.604Z,100033.44
2018-04-12T10:13:22.505Z,100027.63
2018-04-12T10:15:48.338Z,100027.18
2018-04-12T10:18:14.137Z,100007.30
2018-04-12T10:20:40.520Z,100012.02
2018-04-12T10:23:06.359Z,100011.86
2018-04-12T10:25:32.167Z,100003.16
2018-04-12T10:27:58.001Z,99994.52
2018-04-12T10:30:24.445Z,99989.69
2018-04-12T10:32:50.424Z,99987.65
2018-04-12T10:35:17.004Z,99983.38
2018-04-12T10:37:42.898Z,99988.98
2018-04-12T10:40:08.830Z,99983.43
2018-04-12T10:42:34.766Z,99992.81
2018-04-12T10:45:03.187Z,99993.36
2018-04-12T10:47:28.998Z,99995.69
2018-04-12T10:49:54.807Z,99995.03
2018-04-12T10:52:21.763Z,100001.20
2018-04-12T10:54:47.587Z,100005.27
2018-04-12T10:57:16.392Z,100003.68
2018-04-12T10:59:42.287Z,100001.47
2018-04-12T11:02:08.103Z,100008.23
2018-04-12T11:04:33.992Z,100012.59
2018-04-12T11:07:00.374Z,99996.28
2018-04-12T11:09:26.278Z,99998.41
2018-04-12T11:11:52.131Z,100000.09
2018-04-12T11:14:17.949Z,99998.86
2018-04-12T11:16:43.874Z,100004.45
2018-04-12T11:19:09.717Z,100002.34
2018-04-12T11:21:35.596Z,99999.45
2018-04-12T11:24:02.642Z,99996.14
2018-04-12T11:26:29.515Z,99997.00
2018-04-12T11:28:55.355Z,100003.72
2018-04-12T11:31:21.237Z,100004.83
2018-04-12T11:33:47.074Z,100002.53
2018-04-12T11:36:15.898Z,99998.05
2018-04-12T11:38:41.782Z,99999.76
2018-04-12T11:41:07.625Z,99999.32
2018-04-12T11:43:33.435Z,100002.17
2018-04-12T11:45:59.281Z,100004.48
2018-04-12T11:48:27.924Z,100000.00
2018-04-12T11:50:53.821Z,99999.69
2018-04-12T11:53:19.885Z,99999.65
2018-04-12T11:55:47.224Z,99999.94
2018-04-12T11:58:13.048Z,99992.75
2018-04-12T12:00:39.868Z,99993.69
2018-04-12T12:03:06.082Z,100000.41
2018-04-12T12:05:31.905Z,100002.82
2018-04-12T12:07:57.721Z,99998.20
2018-04-12T12:10:23.569Z,100005.77
2018-04-12T12:12:49.387Z,99994.34
2018-04-12T12:15:15.205Z,99992.25
2018-04-12T12:17:41.021Z,99992.02
2018-04-12T12:20:06.855Z,99995.93
2018-04-12T12:22:32.657Z,99997.72
2018-04-12T12:24:58.456Z,99995.63
2018-04-12T12:27:25.117Z,99993.16
2018-04-12T12:29:52.733Z,99995.51
2018-04-12T12:32:18.545Z,99990.66
2018-04-12T12:34:44.527Z,99996.25
2018-04-12T12:37:10.409Z,99998.20
2018-04-12T12:39:36.221Z,99998.86
2018-04-12T12:42:03.007Z,100001.55
2018-04-12T12:44:29.157Z,99992.07
2018-04-12T12:46:54.970Z,99983.02
2018-04-12T12:49:21.724Z,99979.80
2018-04-12T12:51:48.870Z,99970.30
2018-04-12T12:54:14.751Z,99966.49
2018-04-12T12:56:40.558Z,99961.69
2018-04-12T12:59:06.371Z,99947.48
2018-04-12T13:01:32.194Z,99940.33
2018-04-12T13:03:58.298Z,99942.40
2018-04-12T13:06:25.102Z,99942.48
2018-04-12T13:08:51.633Z,99934.45
2018-04-12T13:11:17.474Z,99928.34
2018-04-12T13:13:43.318Z,99924.81
2018-04-12T13:16:09.140Z,99920.69
2018-04-12T13:18:34.959Z,99928.98
2018-04-12T13:21:00.777Z,99927.09
2018-04-12T13:23:26.778Z,99925.47
2018-04-12T13:25:52.919Z,99914.63
2018-04-12T13:28:20.020Z,99906.30
2018-04-12T13:30:45.854Z,99907.27
2018-04-12T13:33:11.658Z,99913.62
2018-04-12T13:35:37.442Z,99916.87
2018-04-12T13:38:03.247Z,99921.23
2018-04-12T13:40:29.143Z,99916.09
2018-04-12T13:42:54.954Z,99920.86
2018-04-12T13:45:21.296Z,99915.44
2018-04-12T13:47:47.098Z,99915.50
2018-04-12T13:50:12.954Z,99918.20
2018-04-12T13:52:45.654Z,99926.21
2018-04-12T13:55:11.498Z,99925.37
2018-04-12T13:57:37.285Z,99920.73
2018-04-12T14:00:03.095Z,99923.50
2018-04-12T14:02:28.890Z,99919.72
2018-04-12T14:04:54.661Z,99898.19
2018-04-12T14:07:20.461Z,99891.77
2018-04-12T14:09:46.265Z,99887.43
2018-04-12T14:12:12.047Z,99890.39
2018-04-12T14:14:37.857Z,99891.42
2018-04-12T14:17:03.651Z,99890.53
2018-04-12T14:19:29.427Z,99878.86
2018-04-12T14:21:55.696Z,99870.55
2018-04-12T14:24:22.818Z,99882.92
2018-04-12T14:26:48.810Z,99892.91
2018-04-12T14:29:14.613Z,99897.70
2018-04-12T14:31:40.497Z,99911.20
2018-04-12T14:34:06.552Z,99909.00
2018-04-12T14:36:32.346Z,99904.90
2018-04-12T14:38:58.124Z,99911.53
2018-04-12T14:41:23.943Z,99903.14
2018-04-12T14:43:49.742Z,99905.22
2018-04-12T14:46:15.882Z,99899.53
2018-04-12T14:48:41.696Z,99899.48
2018-04-12T14:51:07.477Z,99897.66
2018-04-12T14:53:33.304Z,99890.82
2018-04-12T14:55:59.102Z,99881.44
2018-04-12T14:58:24.899Z,99883.12
2018-04-12T15:00:50.705Z,99884.91
2018-04-12T15:03:16.501Z,99861.23
2018-04-12T15:05:42.301Z,99875.77
2018-04-12T15:08:08.101Z,99885.22
2018-04-12T15:10:33.894Z,99886.89
2018-04-12T15:12:59.946Z,99889.41
2018-04-12T15:15:25.736Z,99883.03
2018-04-12T15:17:51.524Z,99854.44
2018-04-12T15:20:17.405Z,99868.26
2018-04-12T15:22:43.190Z,99873.13
2018-04-12T15:25:08.983Z,99873.38
2018-04-12T15:27:34.811Z,99873.91
2018-04-12T15:30:00.627Z,99861.13
2018-04-12T15:32:26.411Z,99865.02
2018-04-12T15:34:52.252Z,99857.98
2018-04-12T15:37:18.047Z,99853.34
2018-04-12T15:39:43.838Z,99855.77
2018-04-12T15:42:09.898Z,99861.18
2018-04-12T15:44:35.683Z,99868.21
2018-04-12T15:47:01.502Z,99864.61
2018-04-12T15:49:27.303Z,99863.95
2018-04-12T15:51:53.360Z,99866.37
2018-04-12T15:54:19.179Z,99862.48
2018-04-12T15:56:44.971Z,99853.98
2018-04-12T15:59:10.814Z,99859.66
2018-04-12T16:01:36.625Z,99854.34
2018-04-12T16:04:02.457Z,99866.54
2018-04-12T16:06:28.265Z,99856.19
2018-04-12T16:08:54.045Z,99837.88
2018-04-12T16:11:19.833Z,99849.41
2018-04-12T16:13:45.646Z,99852.42
2018-04-12T16:16:11.448Z,99856.80
2018-04-12T16:18:37.237Z,99854.19
2018-04-12T16:21:03.069Z,99852.75
2018-04-12T16:23:28.852Z,99848.17
2018-04-12T16:25:54.663Z,99844.12
2018-04-12T16:28:20.468Z,99842.22
2018-04-12T16:30:46.268Z,99838.16
2018-04-12T16:33:12.060Z,99838.74
2018-04-12T16:35:37.870Z,99841.08
2018-04-12T16:38:03.689Z,99848.78
2018-04-12T16:40:29.471Z,99840.24
2018-04-12T16:42:55.313Z,99843.27
2018-04-12T16:45:21.141Z,99836.14
2018-04-12T16:47:46.943Z,99835.13
2018-04-12T16:50:12.875Z,99837.73
2018-04-12T16:52:38.685Z,99831.94
2018-04-12T16:55:04.481Z,99838.85
2018-04-12T16:57:30.294Z,99843.00
2018-04-12T16:59:56.133Z,99835.73
2018-04-12T17:02:21.928Z,99841.31
2018-04-12T17:04:48.013Z,99843.16
2018-04-12T17:07:13.824Z,99853.19
2018-04-12T17:09:39.642Z,99850.28
2018-04-12T17:12:05.575Z,99857.98
2018-04-12T17:14:31.384Z,99853.02
2018-04-12T17:16:57.450Z,99849.55
2018-04-12T17:19:23.650Z,99866.87
2018-04-12T17:21:49.483Z,99861.59
2018-04-12T17:24:15.351Z,99865.95
2018-04-12T17:26:41.145Z,99873.44
2018-04-12T17:29:06.950Z,99874.77
2018-04-12T17:31:32.769Z,99876.42
2018-04-12T17:33:58.741Z,99860.12
2018-04-12T17:36:24.553Z,99854.02
2018-04-12T17:38:50.669Z,99856.67
2018-04-12T17:41:16.475Z,99859.61
2018-04-12T17:43:42.258Z,99866.25
2018-04-12T17:46:08.120Z,99860.06
2018-04-12T17:48:33.919Z,99867.89
2018-04-12T17:50:59.709Z,99865.17
2018-04-12T17:53:25.500Z,99863.40
2018-04-12T17:55:51.301Z,99868.83
2018-04-12T17:58:17.095Z,99864.26
2018-04-12T18:00:43.007Z,99866.95
2018-04-12T18:03:08.819Z,99877.00
2018-04-12T18:05:34.627Z,99879.98
2018-04-12T18:08:00.440Z,99872.50
2018-04-12T18:10:26.250Z,99878.39
2018-04-12T18:12:52.070Z,99874.64
2018-04-12T18:15:17.885Z,99872.94
2018-04-12T18:17:43.702Z,99892.22
2018-04-12T18:20:09.483Z,99887.90
2018-04-12T18:22:35.298Z,99885.35
2018-04-12T18:25:01.091Z,99889.03
2018-04-12T18:27:26.888Z,99893.95
2018-04-12T18:29:52.958Z,99901.19
2018-04-12T18:32:18.749Z,99904.21
2018-04-12T18:34:44.533Z,99904.91
2018-04-12T18:37:10.314Z,99917.45
2018-04-12T18:39:36.334Z,99924.94
2018-04-12T18:42:02.136Z,99925.44
2018-04-12T18:44:27.921Z,99928.08
2018-04-12T18:46:54.097Z,99932.62
2018-04-12T18:49:19.992Z,99933.10
2018-04-12T18:51:46.038Z,99928.23
2018-04-12T18:54:11.933Z,99938.25
2018-04-12T18:56:37.734Z,99928.48
2018-04-12T18:59:03.517Z,99940.26
2018-04-12T19:01:29.381Z,99942.11
2018-04-12T19:03:55.286Z,99942.53
2018-04-12T19:06:21.089Z,99942.50
2018-04-12T19:08:46.890Z,99955.67
2018-04-12T19:11:12.727Z,99956.77
2018-04-12T19:13:38.530Z,99949.25
2018-04-12T19:16:04.340Z,99955.45
2018-04-12T19:18:31.148Z,99959.73
2018-04-12T19:20:56.938Z,99960.41
2018-04-12T19:23:22.739Z,99962.98
2018-04-12T19:25:48.794Z,99968.25
2018-04-12T19:28:14.608Z,99956.30
2018-04-12T19:30:40.440Z,99962.33
2018-04-12T19:33:06.316Z,99952.55
2018-04-12T19:35:33.413Z,99956.14
2018-04-12T19:37:59.245Z,99957.77
2018-04-12T19:40:25.412Z,99951.61
2018-04-12T19:42:51.222Z,99956.95
2018-04-12T19:45:17.067Z,99953.58
2018-04-12T19:47:42.924Z,99940.47
2018-04-12T19:50:08.762Z,99941.07
2018-04-12T19:52:35.207Z,99947.43
2018-04-12T19:55:01.636Z,99947.76
2018-04-12T19:57:27.441Z,99944.25
2018-04-12T19:59:53.263Z,99951.14
2018-04-12T20:02:19.057Z,99941.59
2018-04-12T20:04:44.864Z,99948.49
2018-04-12T20:07:11.489Z,99935.68
2018-04-12T20:09:37.290Z,99939.52
2018-04-12T20:12:03.098Z,99943.67
2018-04-12T20:14:28.921Z,99943.70
2018-04-12T20:16:54.710Z,99934.94
2018-04-12T20:19:20.529Z,99939.66
2018-04-12T20:21:46.410Z,99938.08
2018-04-12T20:24:13.573Z,99932.28
2018-04-12T20:26:39.398Z,99933.66
2018-04-12T20:29:05.231Z,99934.21
2018-04-12T20:31:31.034Z,99938.19
2018-04-12T20:33:56.858Z,99929.13
2018-04-12T20:36:23.613Z,99932.59
2018-04-12T20:38:50.435Z,99926.80
2018-04-12T20:41:16.658Z,99927.38
2018-04-12T20:43:42.494Z,99926.91
2018-04-12T20:46:08.306Z,99918.04
2018-04-12T20:48:34.108Z,99919.41
2018-04-12T20:50:59.910Z,99917.78
2018-04-12T20:53:26.013Z,99915.28
2018-04-12T20:55:51.877Z,99919.03
2018-04-12T20:58:17.706Z,99917.28
2018-04-12T21:00:43.531Z,99915.69
2018-04-12T21:03:09.345Z,99912.88
2018-04-12T21:05:35.309Z,99919.48
2018-04-12T21:08:01.224Z,99923.96
2018-04-12T21:10:27.023Z,99917.92
2018-04-12T21:12:52.819Z,99913.94
2018-04-12T21:15:18.629Z,99912.88
2018-04-12T21:17:44.424Z,99912.74
2018-04-12T21:20:10.245Z,99916.49
2018-04-12T21:22:36.101Z,99919.64
2018-04-12T21:25:02.041Z,99917.86
2018-04-12T21:27:28.077Z,99915.36
2018-04-12T21:29:53.877Z,99913.45
2018-04-12T21:32:19.721Z,99916.23
2018-04-12T21:34:45.532Z,99918.50
2018-04-12T21:37:11.605Z,99918.41
2018-04-12T21:39:37.471Z,99922.02
2018-04-12T21:42:03.302Z,99925.59
2018-04-12T21:44:29.137Z,99929.45
2018-04-12T21:46:54.969Z,99923.89
2018-04-12T21:49:20.770Z,99916.38
2018-04-12T21:51:46.599Z,99922.95
2018-04-12T21:54:12.407Z,99927.63
2018-04-12T21:56:38.206Z,99925.19
2018-04-12T21:59:04.005Z,99932.67
2018-04-12T22:01:29.841Z,99928.52
2018-04-12T22:03:55.616Z,99937.89
2018-04-12T22:06:21.434Z,99930.55
2018-04-12T22:08:47.612Z,99924.13
2018-04-12T22:11:13.405Z,99926.91
2018-04-12T22:13:39.200Z,99927.48
2018-04-12T22:16:05.038Z,99933.09
2018-04-12T22:18:30.861Z,99925.66
2018-04-12T22:20:56.654Z,99929.52
2018-04-12T22:23:22.434Z,99931.77
2018-04-12T22:25:48.437Z,99926.13
2018-04-12T22:28:14.245Z,99927.23
2018-04-12T22:30:40.024Z,99927.59
2018-04-12T22:33:05.809Z,99931.84
2018-04-12T22:35:31.623Z,99936.56
2018-04-12T22:37:57.448Z,99935.73
2018-04-12T22:40:23.240Z,99934.98
2018-04-12T22:42:49.051Z,99935.23
2018-04-12T22:45:14.880Z,99937.06
2018-04-12T22:47:40.668Z,99935.13
2018-04-12T22:50:06.441Z,99930.55
2018-04-12T22:52:32.663Z,99932.20
2018-04-12T22:54:58.454Z,99932.84
2018-04-12T22:57:24.271Z,99930.63
2018-04-12T22:59:50.099Z,99936.06
2018-04-12T23:02:15.926Z,99928.66
2018-04-12T23:04:41.708Z,99927.48
2018-04-12T23:07:07.545Z,99919.94
2018-04-12T23:09:33.344Z,99912.26
2018-04-12T23:11:59.142Z,99906.14
2018-04-12T23:14:24.968Z,99904.53
2018-04-12T23:16:50.776Z,99898.49
2018-04-12T23:19:16.584Z,99891.59
2018-04-12T23:21:42.394Z,99893.03
2018-04-12T23:24:08.182Z,99894.95
2018-04-12T23:26:33.969Z,99887.77
2018-04-12T23:28:59.789Z,99898.45
2018-04-12T23:31:25.573Z,99892.67
2018-04-12T23:33:51.381Z,99897.50
2018-04-12T23:36:17.364Z,99922.80
2018-04-12T23:38:43.145Z,99914.60
2018-04-12T23:41:08.938Z,99916.68
2018-04-12T23:43:34.729Z,99915.28
2018-04-12T23:46:00.535Z,99910.03
2018-04-12T23:48:26.449Z,99908.81
2018-04-12T23:50:52.248Z,99904.52
2018-04-12T23:53:18.081Z,99897.13
2018-04-12T23:55:43.877Z,99894.61
2018-04-12T23:58:09.685Z,99883.39
